Time;durP1;ratioP1;P1;durP2;ratioP2;P2;SDS_P1;SDS_P2;PMS_P1;PMS_P2;Temp;Humidity;BMP_temperature;BMP_pressure;BME280_temperature;BME280_humidity;BME280_pressure;Samples;Min_cycle;Max_cycle;Signal;HPM_P1;HPM_P2
2023/03/03 00:03:32;;;;;;;22.58;15.90;;;;;;;8.06;60.70;101035.56;10455069;27;97194;-79
2023/03/03 00:08:37;;;;;;;23.90;16.27;;;;;;;7.86;60.49;101038.50;10449810;27;97930;-80
2023/03/03 00:13:46;;;;;;;22.97;16.30;;;;;;;7.54;62.05;101035.53;10460850;27;97019;-79
2023/03/03 00:18:49;;;;;;;22.38;15.30;;;;;;;7.55;62.35;101030.25;10453717;27;96793;-82
2023/03/03 00:23:55;;;;;;;24.70;16.33;;;;;;;7.48;62.41;101031.22;10464996;27;96835;-82
2023/03/03 00:28:58;;;;;;;;;;;;;;;7.26;65.07;101024.59;10442730;27;96708;-81
2023/03/03 00:34:21;;;;;;;24.70;16.60;;;;;;;7.14;63.31;101027.38;10467247;27;97121;-82
2023/03/03 00:39:31;;;;;;;20.92;14.52;;;;;;;7.28;62.12;101021.94;10465115;27;96864;-81
2023/03/03 00:44:44;;;;;;;24.75;15.50;;;;;;;7.14;62.18;101016.03;10425653;27;96821;-82
2023/03/03 00:49:48;;;;;;;20.70;15.20;;;;;;;7.07;63.49;101017.88;10462398;27;96599;-82
2023/03/03 00:54:52;;;;;;;20.70;14.63;;;;;;;6.86;63.69;101012.91;10464633;27;97605;-82
2023/03/03 00:59:55;;;;;;;21.90;14.70;;;;;;;6.80;64.18;101008.56;10462387;27;96689;-81
2023/03/03 01:04:59;;;;;;;20.02;15.25;;;;;;;6.71;65.24;101010.44;10464048;27;96857;-80
2023/03/03 01:10:04;;;;;;;23.70;14.98;;;;;;;6.56;65.12;101013.22;10464139;27;100042;-80
2023/03/03 01:15:09;;;;;;;20.92;14.25;;;;;;;6.52;66.00;101001.09;10432119;27;96816;-80
2023/03/03 01:20:13;;;;;;;;;;;;;;;6.56;66.16;100995.78;10442868;27;96876;-80
2023/03/03 01:25:18;;;;;;;20.25;13.52;;;;;;;6.62;64.34;100995.75;10424365;27;96697;-80
2023/03/03 01:30:22;;;;;;;16.52;13.68;;;;;;;6.64;64.66;100986.09;10429562;27;96945;-80
2023/03/03 01:35:25;;;;;;;18.55;13.55;;;;;;;6.39;66.28;100987.28;10447724;27;97398;-80
2023/03/03 01:40:31;;;;;;;22.35;14.20;;;;;;;6.40;66.02;100978.53;10423710;28;96853;-80
2023/03/03 01:46:05;;;;;;;20.02;14.43;;;;;;;6.26;66.19;100974.38;10440660;27;98691;-80
2023/03/03 01:51:18;;;;;;;19.80;13.80;;;;;;;6.22;67.51;100964.81;10462725;27;96891;-80
2023/03/03 01:56:23;;;;;;;18.58;13.45;;;;;;;6.15;66.90;100958.81;10447680;27;98878;-80
2023/03/03 02:01:28;;;;;;;20.90;13.87;;;;;;;6.06;67.44;100964.13;10461630;27;97037;-80
2023/03/03 02:06:33;;;;;;;;;;;;;;;6.00;69.18;100964.19;10463467;27;97113;-80
2023/03/03 02:11:42;;;;;;;21.00;13.50;;;;;;;5.95;67.96;100959.88;10460794;27;97722;-80
2023/03/03 02:16:45;;;;;;;18.48;13.30;;;;;;;6.05;66.65;100959.78;10462828;27;97573;-80
2023/03/03 02:21:48;;;;;;;20.42;13.80;;;;;;;5.99;67.14;100959.84;10463978;27;96787;-80
2023/03/03 02:26:53;;;;;;;19.88;14.35;;;;;;;5.87;68.11;100966.91;10460020;27;98321;-80
2023/03/03 02:31:56;;;;;;;17.63;13.33;;;;;;;5.71;68.00;100960.97;10463051;27;97189;-80
2023/03/03 02:37:00;;;;;;;17.98;13.52;;;;;;;5.71;68.64;100949.69;10462724;27;96757;-80
2023/03/03 02:42:12;;;;;;;19.92;13.57;;;;;;;5.67;69.12;100943.63;10459739;27;96706;-80
2023/03/03 02:47:15;;;;;;;16.10;12.27;;;;;;;5.73;68.01;100934.88;10458229;27;98775;-80
2023/03/03 02:52:18;;;;;;;18.05;12.13;;;;;;;5.95;66.49;100941.59;10461569;27;97159;-80
2023/03/03 02:57:23;;;;;;;18.40;12.45;;;;;;;5.99;65.87;100935.44;10462272;27;96874;-80
2023/03/03 03:02:26;;;;;;;18.30;12.87;;;;;;;5.83;66.43;100926.91;10456193;27;96686;-80
2023/03/03 03:07:29;;;;;;;20.00;13.45;;;;;;;5.61;68.19;100933.22;10462278;27;96837;-80
2023/03/03 03:12:33;;;;;;;19.88;12.55;;;;;;;5.56;67.89;100930.66;10462483;27;96837;-80
2023/03/03 03:17:37;;;;;;;19.13;13.70;;;;;;;5.43;69.43;100933.38;10445918;27;96764;-80
2023/03/03 03:22:41;;;;;;;18.27;13.88;;;;;;;5.39;68.88;100927.31;10459830;27;96736;-80
2023/03/03 03:27:45;;;;;;;18.80;13.27;;;;;;;5.43;68.49;100920.34;10462379;27;96891;-80
2023/03/03 03:32:48;;;;;;;18.67;13.23;;;;;;;5.50;68.39;100920.25;10458458;27;97506;-80
2023/03/03 03:37:51;;;;;;;19.17;13.15;;;;;;;5.33;69.20;100918.66;10461825;27;96648;-80
2023/03/03 03:42:56;;;;;;;20.85;13.18;;;;;;;5.22;69.72;100900.50;10460502;27;96869;-80
2023/03/03 03:48:00;;;;;;;22.67;13.43;;;;;;;5.35;69.42;100894.28;10463480;27;97148;-80
2023/03/03 03:53:03;;;;;;;18.92;13.20;;;;;;;5.25;69.22;100894.38;10438960;27;98919;-80
2023/03/03 03:58:08;;;;;;;15.73;11.75;;;;;;;5.32;67.83;100896.94;10464044;27;96805;-79
2023/03/03 04:03:13;;;;;;;16.92;12.00;;;;;;;5.54;66.05;100892.38;10468549;27;97387;-80
2023/03/03 04:08:16;;;;;;;17.83;12.25;;;;;;;5.71;65.32;100903.53;10467016;27;96848;-79
2023/03/03 04:13:22;;;;;;;15.18;11.13;;;;;;;5.86;64.61;100892.06;10468100;27;96868;-80
2023/03/03 04:18:25;;;;;;;19.83;12.52;;;;;;;5.81;63.19;100899.97;10461604;27;96814;-80
2023/03/03 04:23:28;;;;;;;16.58;10.93;;;;;;;5.85;63.08;100906.88;10465414;27;96615;-79
2023/03/03 04:28:33;;;;;;;18.75;10.95;;;;;;;5.91;62.98;100904.19;10438760;27;96784;-80
2023/03/03 04:33:36;;;;;;;16.53;11.67;;;;;;;5.87;62.25;100910.31;10465765;27;96878;-80
2023/03/03 04:38:39;;;;;;;16.50;11.55;;;;;;;5.65;64.59;100906.22;10466252;27;96684;-80
2023/03/03 04:43:44;;;;;;;15.15;11.02;;;;;;;5.75;63.45;100905.22;10460925;27;96776;-80
2023/03/03 04:48:47;;;;;;;13.93;10.83;;;;;;;5.77;62.13;100898.25;10464519;27;96688;-81
2023/03/03 04:53:50;;;;;;;16.77;11.82;;;;;;;5.62;62.98;100901.03;10453056;27;96780;-80
2023/03/03 04:58:55;;;;;;;14.57;11.30;;;;;;;5.68;62.50;100912.25;10459632;27;96843;-80
2023/03/03 05:03:58;;;;;;;15.18;11.35;;;;;;;5.68;62.11;100914.88;10461045;27;96731;-80
2023/03/03 05:09:02;;;;;;;17.85;12.48;;;;;;;5.51;63.31;100918.50;10465218;27;97328;-80
2023/03/03 05:14:07;;;;;;;17.02;11.50;;;;;;;5.56;62.92;100915.00;10465396;27;96785;-80
2023/03/03 05:19:10;;;;;;;13.93;11.25;;;;;;;5.40;63.91;100908.16;10462255;27;97515;-80
2023/03/03 05:24:14;;;;;;;16.83;11.57;;;;;;;5.45;63.06;100926.41;10464882;27;96650;-80
2023/03/03 05:29:19;;;;;;;17.25;11.13;;;;;;;5.52;62.36;100915.00;10466286;27;96862;-80
2023/03/03 05:34:22;;;;;;;14.20;11.30;;;;;;;5.42;62.16;100931.63;10442318;27;97180;-80
2023/03/03 05:39:25;;;;;;;13.45;10.45;;;;;;;5.46;62.27;100936.84;10452684;27;96776;-80
2023/03/03 05:44:29;;;;;;;15.65;10.45;;;;;;;5.27;63.36;100936.97;10454804;27;99173;-80
2023/03/03 05:49:33;;;;;;;13.97;10.97;;;;;;;5.39;62.98;100942.97;10453443;27;96703;-80
2023/03/03 05:54:36;;;;;;;14.45;11.05;;;;;;;5.39;62.22;100947.31;10450577;27;97170;-80
2023/03/03 05:59:41;;;;;;;14.23;10.63;;;;;;;5.35;62.33;100949.09;10462058;27;97062;-80
2023/03/03 06:04:44;;;;;;;13.30;9.70;;;;;;;5.38;62.44;100951.66;10461542;27;99163;-80
2023/03/03 06:09:47;;;;;;;15.45;11.20;;;;;;;5.03;64.54;100958.00;10459656;27;98321;-80
2023/03/03 06:14:51;;;;;;;15.07;10.63;;;;;;;5.09;63.67;100957.97;10463222;27;97451;-80
2023/03/03 06:19:55;;;;;;;14.70;11.10;;;;;;;5.01;64.02;100957.16;10462890;27;96778;-80
2023/03/03 06:24:58;;;;;;;14.50;10.73;;;;;;;5.08;63.06;100953.63;10460125;27;96848;-80
2023/03/03 06:30:03;;;;;;;15.05;10.73;;;;;;;5.11;63.00;100966.66;10462544;27;97059;-80
2023/03/03 06:35:07;;;;;;;14.40;10.35;;;;;;;5.13;62.05;100963.16;10463729;27;96758;-80
2023/03/03 06:40:11;;;;;;;13.65;9.95;;;;;;;5.15;62.55;100963.16;10457938;27;96811;-80
2023/03/03 06:45:16;;;;;;;15.48;10.68;;;;;;;5.14;62.62;100967.50;10422695;27;99380;-81
2023/03/03 06:50:21;;;;;;;14.48;10.30;;;;;;;5.28;61.78;100970.00;10461118;27;96706;-80
2023/03/03 06:55:24;;;;;;;18.47;10.43;;;;;;;5.05;62.68;100977.13;10458865;27;96833;-80
2023/03/03 07:00:29;;;;;;;14.52;10.40;;;;;;;4.96;63.16;100980.66;10448404;27;98706;-80
2023/03/03 07:05:33;;;;;;;12.18;9.90;;;;;;;4.97;62.53;100992.81;10449448;27;99289;-80
2023/03/03 07:10:36;;;;;;;13.93;10.02;;;;;;;5.03;62.32;100992.78;10462500;27;96736;-80
2023/03/03 07:15:41;;;;;;;14.02;10.02;;;;;;;4.95;62.26;100999.78;10451114;27;99565;-80
2023/03/03 07:20:45;;;;;;;13.20;10.27;;;;;;;4.97;62.54;101007.59;10434728;27;96710;-80
2023/03/03 07:25:48;;;;;;;12.90;9.45;;;;;;;5.09;61.76;101004.91;10420718;28;96735;-80
2023/03/03 07:30:54;;;;;;;14.43;10.48;;;;;;;4.88;63.79;101016.31;10443771;27;97009;-79
2023/03/03 07:35:59;;;;;;;12.20;9.57;;;;;;;5.07;62.60;101023.19;10459988;27;96791;-78
2023/03/03 07:41:05;;;;;;;15.52;11.00;;;;;;;5.12;62.84;101029.22;10459006;27;96745;-78
2023/03/03 07:46:27;;;;;;;13.80;10.40;;;;;;;5.22;62.45;101035.28;10437910;27;99076;-77
2023/03/03 07:51:40;;;;;;;14.82;10.63;;;;;;;5.19;62.43;101043.13;10448632;27;96906;-77
2023/03/03 07:56:44;;;;;;;12.10;9.32;;;;;;;5.49;61.33;101040.31;10458550;27;96883;-77
2023/03/03 08:01:52;;;;;;;11.30;9.18;;;;;;;5.53;61.65;101045.53;10456447;27;96744;-76
2023/03/03 08:06:56;;;;;;;13.65;9.30;;;;;;;6.06;60.72;101039.00;10441121;27;96644;-76
2023/03/03 08:12:18;;;;;;;10.68;8.73;;;;;;;7.77;56.62;101036.03;10449282;27;96796;-78
2023/03/03 08:17:25;;;;;;;9.98;8.00;;;;;;;8.97;54.88;101030.28;10448863;27;96918;-78
2023/03/03 08:22:31;;;;;;;11.48;8.60;;;;;;;9.84;52.41;101024.84;10460878;27;96814;-78
2023/03/03 08:27:34;;;;;;;8.63;7.20;;;;;;;11.37;48.97;101033.75;10444987;27;96632;-78
2023/03/03 08:32:39;;;;;;;12.55;8.93;;;;;;;11.84;47.18;101031.41;10457742;27;98616;-78
2023/03/03 08:37:42;;;;;;;9.70;7.82;;;;;;;12.49;45.49;101028.28;10455792;27;96958;-79
2023/03/03 08:42:46;;;;;;;14.32;9.82;;;;;;;12.92;43.07;101032.03;10457372;27;96880;-81
2023/03/03 08:53:08;;;;;;;10.32;8.00;;;;;;;13.95;40.77;101036.78;10463377;27;98773;-81
2023/03/03 08:58:12;;;;;;;11.32;7.40;;;;;;;14.92;39.08;101028.19;10463789;27;96850;-80
2023/03/03 09:03:16;;;;;;;9.25;8.13;;;;;;;15.48;37.35;101029.97;10459431;27;99701;-80
2023/03/03 09:08:19;;;;;;;9.40;6.93;;;;;;;15.38;36.90;101034.00;10456933;27;98529;-81
2023/03/03 09:13:23;;;;;;;8.43;6.95;;;;;;;17.07;34.25;101033.34;10446269;27;96773;-80
2023/03/03 09:18:34;;;;;;;7.68;6.30;;;;;;;16.17;34.16;101023.00;10460366;27;99009;-80
2023/03/03 09:23:39;;;;;;;11.73;7.47;;;;;;;12.73;39.26;101036.25;10459995;27;97583;-82
2023/03/03 09:28:42;;;;;;;10.40;7.18;;;;;;;11.91;41.29;101027.66;10462036;27;96836;-86
2023/03/03 09:33:50;;;;;;;9.82;7.53;;;;;;;11.00;43.49;101027.84;10458342;27;97155;-85
2023/03/03 09:38:54;;;;;;;9.77;8.07;;;;;;;10.92;43.84;101016.63;10462739;27;98229;-84
2023/03/03 09:44:17;;;;;;;9.52;7.43;;;;;;;11.16;43.18;101015.94;10457477;27;97712;-84
2023/03/03 09:49:31;;;;;;;8.90;6.75;;;;;;;11.39;43.27;101007.34;10456771;27;99170;-83
2023/03/03 09:54:54;;;;;;;8.40;6.75;;;;;;;14.24;38.88;100995.00;10455701;27;97152;-84
2023/03/03 10:00:19;;;;;;;10.50;6.75;;;;;;;15.15;35.58;100983.78;10447294;27;97580;-84
2023/03/03 10:05:41;;;;;;;7.03;5.95;;;;;;;16.40;33.56;100971.41;10446366;27;99136;-84
2023/03/03 10:10:53;;;;;;;7.45;6.53;;;;;;;16.81;32.47;100964.75;10453517;27;98239;-84
2023/03/03 10:16:13;;;;;;;8.55;6.50;;;;;;;16.96;32.07;100951.47;10462200;27;96704;-84
2023/03/03 10:21:24;;;;;;;6.68;5.95;;;;;;;16.93;31.96;100943.69;10456398;27;97015;-83
2023/03/03 10:26:42;;;;;;;9.48;6.18;;;;;;;18.57;30.29;100940.31;10450813;27;96932;-83
2023/03/03 10:32:08;;;;;;;7.78;5.60;;;;;;;18.47;29.23;100947.19;10438963;27;96763;-83
2023/03/03 10:37:21;;;;;;;7.57;6.10;;;;;;;18.19;29.37;100943.47;10437496;27;97268;-84
2023/03/03 10:42:38;;;;;;;7.97;6.67;;;;;;;18.36;29.06;100944.25;10448722;27;96858;-85
2023/03/03 10:48:06;;;;;;;7.82;6.60;;;;;;;18.53;28.88;100934.31;10454617;27;99378;-85
2023/03/03 10:53:22;;;;;;;8.18;6.57;;;;;;;18.55;28.77;100916.44;10443616;27;98735;-85
2023/03/03 10:58:46;;;;;;;7.20;6.50;;;;;;;19.50;27.50;100918.31;10430528;27;98642;-87
2023/03/03 11:04:12;;;;;;;8.60;6.95;;;;;;;18.79;28.17;100909.56;10451718;27;96834;-86
2023/03/03 11:09:40;;;;;;;7.38;6.60;;;;;;;19.80;26.61;100905.59;10464512;27;96743;-87
2023/03/03 11:14:49;;;;;;;8.40;7.00;;;;;;;21.03;26.17;100897.81;10451657;27;99024;-89
2023/03/03 11:20:03;;;;;;;7.57;6.47;;;;;;;22.32;24.52;100889.78;10461416;27;99083;-87
2023/03/03 11:25:21;;;;;;;8.10;6.65;;;;;;;22.26;24.24;100895.63;10462503;27;96671;-87
2023/03/03 11:30:54;;;;;;;8.25;6.50;;;;;;;21.18;24.68;100894.91;10448677;27;96936;-86
2023/03/03 11:36:10;;;;;;;7.80;6.90;;;;;;;21.81;24.62;100883.91;10421239;28;96784;-87
2023/03/03 11:41:26;;;;;;;8.25;7.32;;;;;;;21.69;24.69;100874.13;10462229;27;96780;-85
2023/03/03 11:46:35;;;;;;;9.40;6.85;;;;;;;21.83;24.90;100875.75;10431173;27;98729;-87
2023/03/03 11:51:49;;;;;;;7.88;6.53;;;;;;;21.45;24.83;100859.88;10462507;27;96681;-87
2023/03/03 11:57:01;;;;;;;7.45;6.75;;;;;;;22.06;24.46;100851.59;10462347;27;96647;-87
2023/03/03 12:02:20;;;;;;;8.55;7.07;;;;;;;21.93;24.46;100840.09;10463356;27;96617;-85
2023/03/03 12:07:32;;;;;;;8.63;6.80;;;;;;;22.19;24.07;100830.06;10456148;27;98344;-89
2023/03/03 12:12:41;;;;;;;8.55;7.15;;;;;;;21.78;24.53;100829.69;10462613;27;96795;-88
2023/03/03 12:18:02;;;;;;;9.57;6.70;;;;;;;22.74;23.64;100818.47;10466816;27;96914;-86
2023/03/03 12:23:19;;;;;;;8.00;6.20;;;;;;;23.60;22.63;100809.47;10468974;27;96870;-87
2023/03/03 12:28:27;;;;;;;7.75;5.30;;;;;;;25.25;20.80;100803.72;10464139;27;97229;-86
2023/03/03 12:33:42;;;;;;;5.40;4.63;;;;;;;24.98;21.32;100806.22;10471317;27;97688;-84
2023/03/03 12:38:54;;;;;;;7.45;5.30;;;;;;;24.99;20.52;100792.63;10455793;27;97084;-86
2023/03/03 12:44:04;;;;;;;4.93;4.25;;;;;;;25.41;19.61;100793.25;10445335;27;97652;-87
2023/03/03 12:49:07;;;;;;;4.70;3.78;;;;;;;24.92;20.28;100771.75;10468125;27;96742;-86
2023/03/03 12:54:36;;;;;;;4.55;3.53;;;;;;;24.07;19.90;100760.53;10464638;27;97305;-84
2023/03/03 12:59:49;;;;;;;4.68;3.75;;;;;;;24.84;20.19;100750.91;10465626;27;96808;-86
2023/03/03 13:05:00;;;;;;;4.47;3.50;;;;;;;24.50;20.11;100745.03;10460839;27;96807;-86
2023/03/03 13:10:14;;;;;;;4.25;3.50;;;;;;;24.94;20.04;100742.84;10453157;27;98754;-87
2023/03/03 13:15:23;;;;;;;6.07;3.90;;;;;;;24.84;20.25;100732.06;10458050;27;97697;-88
2023/03/03 13:20:44;;;;;;;4.80;3.78;;;;;;;24.00;20.82;100726.25;10454697;27;99509;-88
2023/03/03 13:25:53;;;;;;;4.55;3.60;;;;;;;23.98;20.98;100718.31;10456313;27;96891;-87
2023/03/03 13:31:03;;;;;;;4.72;3.47;;;;;;;24.04;20.52;100706.16;10445781;27;97268;-87
2023/03/03 13:36:10;;;;;;;4.22;3.60;;;;;;;25.55;19.25;100690.41;10455593;27;97013;-87
2023/03/03 13:41:21;;;;;;;4.75;3.70;;;;;;;26.53;17.88;100680.78;10446480;27;98538;-89
2023/03/03 13:46:37;;;;;;;4.75;3.85;;;;;;;25.52;18.37;100674.53;10447029;27;97838;-88
2023/03/03 13:51:47;;;;;;;4.03;2.72;;;;;;;25.41;18.38;100669.28;10458283;27;97305;-84
2023/03/03 13:57:10;;;;;;;4.82;3.25;;;;;;;25.26;18.54;100668.88;10460213;27;97025;-84
2023/03/03 14:02:39;;;;;;;6.03;4.20;;;;;;;24.55;20.07;100664.72;10451053;27;96822;-81
2023/03/03 14:07:47;;;;;;;5.25;4.72;;;;;;;22.95;22.06;100653.88;10449831;27;100620;-85
2023/03/03 14:12:58;;;;;;;6.93;4.55;;;;;;;22.53;22.67;100647.53;10463864;27;96877;-86
2023/03/03 14:18:29;;;;;;;6.20;4.43;;;;;;;22.12;22.73;100631.31;10456305;27;96681;-84
2023/03/03 14:23:40;;;;;;;5.82;3.90;;;;;;;21.45;24.09;100629.56;10458391;27;96695;-82
2023/03/03 14:28:45;;;;;;;5.75;4.15;;;;;;;21.57;23.83;100625.09;10464513;27;96845;-86
2023/03/03 14:34:01;;;;;;;4.68;4.22;;;;;;;21.49;24.63;100628.38;10468724;27;96786;-87
2023/03/03 14:39:30;;;;;;;6.50;4.25;;;;;;;21.74;24.49;100622.78;10457658;27;97498;-88
2023/03/03 14:44:36;;;;;;;6.40;4.72;;;;;;;22.01;24.17;100617.91;10466252;27;96739;-89
2023/03/03 14:49:41;;;;;;;5.95;4.93;;;;;;;21.30;25.53;100614.72;10466906;27;96732;-89
2023/03/03 14:54:47;;;;;;;7.43;5.85;;;;;;;20.90;26.25;100610.69;10461551;27;97138;-86
2023/03/03 14:59:59;;;;;;;7.80;6.22;;;;;;;20.62;26.49;100611.09;10453758;27;96846;-87
2023/03/03 15:05:18;;;;;;;9.27;6.68;;;;;;;20.85;26.43;100612.88;10457252;27;99382;-82
2023/03/03 15:10:31;;;;;;;7.75;6.30;;;;;;;21.28;26.99;100603.28;10445855;27;97782;-87
2023/03/03 15:15:34;;;;;;;12.02;7.38;;;;;;;19.75;28.34;100592.56;10465144;27;96667;-86
2023/03/03 15:20:42;;;;;;;13.80;9.63;;;;;;;19.82;29.11;100595.69;10462646;27;96684;-82
2023/03/03 15:25:54;;;;;;;16.65;11.27;;;;;;;19.86;30.02;100592.66;10429565;27;97090;-84
2023/03/03 15:31:07;;;;;;;14.95;11.60;;;;;;;19.59;30.71;100597.31;10433987;27;96773;-85
2023/03/03 15:36:24;;;;;;;14.90;11.02;;;;;;;19.25;31.23;100589.94;10451913;27;97596;-84
2023/03/03 15:41:38;;;;;;;14.45;10.80;;;;;;;18.64;32.20;100589.78;10455322;27;98492;-86
2023/03/03 15:46:57;;;;;;;15.98;11.18;;;;;;;17.75;34.07;100599.16;10448851;27;97882;-89
2023/03/03 15:52:21;;;;;;;14.52;10.55;;;;;;;17.83;34.52;100599.53;10453715;27;97224;-84
2023/03/03 15:57:40;;;;;;;16.23;10.73;;;;;;;18.22;33.14;100592.56;10464213;27;98695;-81
2023/03/03 16:02:51;;;;;;;16.30;11.18;;;;;;;18.10;33.81;100588.91;10455791;27;97310;-81
2023/03/03 16:08:11;;;;;;;14.68;10.82;;;;;;;17.49;35.22;100589.31;10427006;28;96674;-81
2023/03/03 16:13:23;;;;;;;15.93;10.95;;;;;;;17.19;35.58;100588.50;10426112;27;96824;-80
2023/03/03 16:18:36;;;;;;;15.30;11.32;;;;;;;17.55;35.06;100586.28;10427408;27;96657;-80
2023/03/03 16:23:46;;;;;;;14.98;10.63;;;;;;;17.92;34.45;100585.63;10426899;27;97172;-80
2023/03/03 16:29:08;;;;;;;16.58;10.73;;;;;;;17.61;35.53;100582.34;10426342;28;96684;-80
2023/03/03 16:34:17;;;;;;;16.55;10.38;;;;;;;17.48;35.39;100584.94;10452641;27;97370;-80
2023/03/03 16:39:29;;;;;;;16.67;10.20;;;;;;;17.10;35.77;100597.06;10464887;27;97273;-80
2023/03/03 16:44:43;;;;;;;15.88;10.00;;;;;;;16.36;37.91;100600.63;10449650;27;96671;-81
2023/03/03 16:49:55;;;;;;;17.00;9.52;;;;;;;15.72;39.06;100596.28;10447232;27;96789;-80
2023/03/03 16:55:05;;;;;;;16.60;9.35;;;;;;;15.50;39.80;100608.16;10454457;27;96763;-80
2023/03/03 17:00:12;;;;;;;16.05;9.70;;;;;;;15.27;40.14;100606.72;10436333;27;96695;-80
2023/03/03 17:05:25;;;;;;;15.68;9.90;;;;;;;15.14;41.20;100610.94;10466388;27;96721;-80
2023/03/03 17:10:35;;;;;;;15.23;9.93;;;;;;;14.85;41.72;100616.91;10457555;27;96601;-80
2023/03/03 17:15:50;;;;;;;16.50;10.90;;;;;;;14.65;42.26;100620.56;10436139;27;97607;-80
2023/03/03 17:20:56;;;;;;;;;;;;;;;14.56;42.80;100633.38;10448849;27;96653;-81
2023/03/03 17:26:12;;;;;;;20.90;11.93;;;;;;;14.53;42.12;100636.19;10443479;27;96759;-80
2023/03/03 17:31:23;;;;;;;19.67;11.57;;;;;;;14.42;42.58;100642.00;10447609;27;96661;-80
2023/03/03 17:36:38;;;;;;;21.13;11.90;;;;;;;14.34;43.09;100649.47;10465364;27;96713;-80
2023/03/03 17:41:52;;;;;;;16.90;10.88;;;;;;;14.24;43.61;100653.50;10448134;27;96762;-80
2023/03/03 17:47:00;;;;;;;17.00;10.52;;;;;;;14.09;43.78;100656.03;10462230;27;96720;-80
2023/03/03 17:52:38;;;;;;;19.75;10.93;;;;;;;13.90;45.25;100653.34;10439786;27;97182;-80
2023/03/03 17:57:57;;;;;;;17.77;11.82;;;;;;;13.82;45.33;100655.50;10446861;27;96787;-80
2023/03/03 18:03:30;;;;;;;21.08;12.00;;;;;;;13.73;45.55;100647.97;10450346;27;96824;-81
2023/03/03 18:08:52;;;;;;;21.33;13.65;;;;;;;13.69;45.41;100652.56;10439035;27;96970;-80
2023/03/03 18:14:34;;;;;;;25.48;15.52;;;;;;;13.58;45.61;100665.44;10438403;27;96948;-80
2023/03/03 18:19:58;;;;;;;22.35;14.02;;;;;;;13.50;46.53;100678.13;10454250;27;97375;-81
2023/03/03 18:25:08;;;;;;;24.17;15.55;;;;;;;13.35;47.25;100685.88;10439975;27;97172;-81
2023/03/03 18:30:53;;;;;;;25.52;15.25;;;;;;;13.02;49.05;100690.81;10451250;27;96732;-81
2023/03/03 18:36:12;;;;;;;49.90;27.38;;;;;;;12.77;49.39;100691.94;10442937;27;96747;-80
2023/03/03 18:41:23;;;;;;;31.70;18.25;;;;;;;12.54;49.24;100695.47;10442010;27;96790;-80
2023/03/03 18:46:54;;;;;;;71.30;37.15;;;;;;;12.35;50.11;100694.50;10437408;27;96725;-80
2023/03/03 18:52:23;;;;;;;68.75;31.02;;;;;;;12.14;51.39;100695.34;10446313;27;97402;-80
2023/03/03 18:57:26;;;;;;;69.45;36.20;;;;;;;12.01;50.70;100697.59;10440657;27;96614;-81
2023/03/03 19:02:37;;;;;;;58.35;29.00;;;;;;;11.97;51.26;100705.69;10437947;27;97147;-81
2023/03/03 19:07:51;;;;;;;52.33;27.92;;;;;;;11.75;52.50;100707.41;10423985;27;96810;-80
2023/03/03 19:12:56;;;;;;;37.92;20.90;;;;;;;11.74;51.83;100711.81;10439394;27;97273;-79
2023/03/03 19:18:03;;;;;;;38.90;23.17;;;;;;;11.68;52.47;100713.81;10457053;27;97080;-79
2023/03/03 19:23:12;;;;;;;34.38;21.25;;;;;;;11.67;52.32;100718.22;10454778;27;98869;-78
2023/03/03 19:28:35;;;;;;;47.30;26.67;;;;;;;11.48;53.72;100724.22;10448236;27;96683;-78
2023/03/03 19:33:55;;;;;;;82.00;39.40;;;;;;;11.37;52.83;100728.09;10447423;27;98587;-78
2023/03/03 19:39:11;;;;;;;31.00;18.40;;;;;;;11.45;52.77;100734.88;10460345;27;97622;-79
2023/03/03 19:44:31;;;;;;;23.85;15.18;;;;;;;11.27;53.34;100739.00;10447754;27;96978;-79
2023/03/03 19:49:54;;;;;;;28.08;17.10;;;;;;;11.08;53.93;100745.78;10463161;27;96755;-79
2023/03/03 19:55:12;;;;;;;25.92;15.70;;;;;;;10.84;54.94;100750.09;10460470;27;96811;-81
2023/03/03 20:00:23;;;;;;;41.53;23.15;;;;;;;10.92;54.67;100744.59;10444834;27;97822;-79
2023/03/03 20:05:39;;;;;;;23.60;15.85;;;;;;;10.84;55.57;100750.09;10453550;27;98926;-82
2023/03/03 20:10:52;;;;;;;28.83;17.70;;;;;;;10.66;55.61;100760.38;10455574;27;97693;-78
2023/03/03 20:16:06;;;;;;;47.90;27.85;;;;;;;10.56;56.38;100759.78;10452956;27;98668;-78
2023/03/03 20:21:28;;;;;;;44.03;27.33;;;;;;;10.82;55.87;100748.41;10418897;28;97692;-79
2023/03/03 20:26:38;;;;;;;31.88;22.67;;;;;;;10.99;54.81;100751.38;10440547;27;96847;-78
2023/03/03 20:31:49;;;;;;;33.20;19.88;;;;;;;11.05;54.67;100757.28;10431499;27;99532;-79
